Time;durP1;ratioP1;P1;durP2;ratioP2;P2;SDS_P1;SDS_P2;PMS_P1;PMS_P2;Temp;Humidity;BMP_temperature;BMP_pressure;BME280_temperature;BME280_humidity;BME280_pressure;Samples;Min_cycle;Max_cycle;Signal;HPM_P1;HPM_P2
2021/12/20 00:01:37;;;;;;;12.70;2.85;;;;;;;8.36;100.00;102893.97;5048156;28;20112;-73
2021/12/20 00:04:02;;;;;;;10.80;2.97;;;;;;;8.40;100.00;102890.59;5050615;28;20048;-75
2021/12/20 00:06:28;;;;;;;19.02;2.85;;;;;;;8.23;100.00;102897.59;5046021;28;20071;-74
2021/12/20 00:08:53;;;;;;;10.40;2.38;;;;;;;8.24;100.00;102891.94;5037289;28;20029;-73
2021/12/20 00:11:18;;;;;;;13.65;2.90;;;;;;;8.37;100.00;102893.75;5062776;28;20103;-74
2021/12/20 00:13:44;;;;;;;14.82;3.00;;;;;;;7.83;100.00;102893.09;5038712;28;20486;-74
2021/12/20 00:16:10;;;;;;;14.52;3.33;;;;;;;7.85;100.00;102892.88;5046165;28;20333;-74
2021/12/20 00:18:35;;;;;;;15.80;3.40;;;;;;;8.22;100.00;102890.47;5030986;28;20451;-74
2021/12/20 00:21:01;;;;;;;14.57;3.00;;;;;;;8.43;100.00;102892.94;5054786;28;20431;-73
2021/12/20 00:23:26;;;;;;;13.63;3.22;;;;;;;8.53;100.00;102892.47;5054048;28;20079;-74
2021/12/20 00:25:52;;;;;;;13.50;2.90;;;;;;;8.57;100.00;102887.41;5025061;28;20036;-73
2021/12/20 00:28:18;;;;;;;11.23;2.53;;;;;;;8.62;100.00;102884.84;5063686;28;20050;-73
2021/12/20 00:30:47;;;;;;;12.68;3.17;;;;;;;8.68;100.00;102896.81;5062943;28;20119;-74
2021/12/20 00:33:13;;;;;;;13.43;2.55;;;;;;;8.41;100.00;102889.56;5045309;28;20044;-74
2021/12/20 00:35:39;;;;;;;17.50;3.33;;;;;;;8.36;100.00;102880.31;5044528;28;20063;-73
2021/12/20 00:40:48;;;;;;;13.90;2.80;;;;;;;8.48;100.00;102877.75;5060275;28;20454;-73
2021/12/20 00:43:14;;;;;;;17.58;3.35;;;;;;;8.49;100.00;102880.28;5062189;28;20028;-74
2021/12/20 00:45:41;;;;;;;15.20;2.83;;;;;;;8.47;100.00;102871.47;5047979;28;20354;-74
2021/12/20 00:48:06;;;;;;;14.13;3.05;;;;;;;8.42;100.00;102880.28;5025436;28;20032;-73
2021/12/20 00:50:33;;;;;;;20.63;3.03;;;;;;;8.34;100.00;102879.69;5047541;28;20031;-73
2021/12/20 00:52:58;;;;;;;10.50;3.22;;;;;;;8.06;100.00;102875.41;5058585;28;20108;-75
2021/12/20 00:55:27;;;;;;;19.40;3.33;;;;;;;7.82;100.00;102871.47;5050331;28;20173;-73
2021/12/20 00:57:55;;;;;;;17.50;3.17;;;;;;;7.98;100.00;102864.72;5050486;28;20032;-73
2021/12/20 01:00:25;;;;;;;14.50;3.67;;;;;;;7.83;100.00;102864.97;5027892;28;20021;-73
2021/12/20 01:02:51;;;;;;;14.20;2.97;;;;;;;8.21;100.00;102873.22;5044658;28;20029;-74
2021/12/20 01:05:17;;;;;;;18.38;3.13;;;;;;;8.16;100.00;102866.75;5046316;28;20539;-73
2021/12/20 01:07:43;;;;;;;16.80;3.00;;;;;;;8.34;100.00;102871.50;5045736;28;20100;-73
2021/12/20 01:10:09;;;;;;;16.85;3.00;;;;;;;7.94;100.00;102863.47;5049348;28;20398;-74
2021/12/20 01:12:48;;;;;;;15.73;3.08;;;;;;;8.07;100.00;102863.44;5036529;28;20147;-74
2021/12/20 01:15:21;;;;;;;16.20;2.88;;;;;;;8.18;100.00;102861.91;5043756;28;20487;-73
2021/12/20 01:17:49;;;;;;;15.63;2.67;;;;;;;8.18;100.00;102865.47;5055480;28;20033;-73
2021/12/20 01:20:16;;;;;;;18.35;4.22;;;;;;;8.01;100.00;102867.84;5029547;28;20066;-74
2021/12/20 01:22:43;;;;;;;22.13;4.00;;;;;;;8.06;100.00;102859.84;5046663;28;20047;-73
2021/12/20 01:25:09;;;;;;;21.02;4.28;;;;;;;8.20;100.00;102855.16;5051318;28;20326;-73
2021/12/20 01:27:34;;;;;;;14.68;3.75;;;;;;;8.32;100.00;102862.69;5037029;28;20037;-73
2021/12/20 01:30:00;;;;;;;21.08;3.70;;;;;;;8.09;100.00;102853.13;5047091;28;20054;-73
2021/12/20 01:32:25;;;;;;;19.15;3.28;;;;;;;8.23;100.00;102853.88;5062417;28;20036;-74
2021/12/20 01:34:51;;;;;;;15.32;3.55;;;;;;;8.32;100.00;102849.84;5064689;28;20028;-72
2021/12/20 01:37:16;;;;;;;15.75;3.28;;;;;;;8.34;100.00;102853.19;5046099;28;20028;-73
2021/12/20 01:39:42;;;;;;;20.60;3.30;;;;;;;8.38;100.00;102859.91;5064560;28;20032;-74
2021/12/20 01:42:08;;;;;;;16.30;3.13;;;;;;;8.38;100.00;102859.91;5060084;28;20090;-74
2021/12/20 01:44:35;;;;;;;22.27;3.30;;;;;;;8.45;100.00;102854.44;5064820;28;20094;-74
2021/12/20 01:47:03;;;;;;;20.75;3.83;;;;;;;8.46;100.00;102859.69;5039468;28;20065;-74
2021/12/20 01:49:31;;;;;;;16.35;3.08;;;;;;;8.46;100.00;102854.22;5045281;28;20072;-73
2021/12/20 01:54:25;;;;;;;20.40;3.30;;;;;;;8.41;100.00;102858.63;5044345;28;20029;-73
2021/12/20 01:56:52;;;;;;;17.17;3.25;;;;;;;8.35;100.00;102868.56;5036043;28;20408;-73
2021/12/20 01:59:17;;;;;;;19.63;3.00;;;;;;;8.37;100.00;102860.97;5062735;28;20028;-73
2021/12/20 02:01:45;;;;;;;17.25;3.78;;;;;;;7.86;100.00;102862.63;5049923;28;20447;-73
2021/12/20 02:04:11;;;;;;;16.13;3.13;;;;;;;8.01;100.00;102859.66;5041835;28;20435;-73
2021/12/20 02:06:41;;;;;;;22.25;3.45;;;;;;;8.18;100.00;102854.56;5043469;28;20055;-73
2021/12/20 02:09:16;;;;;;;16.88;3.08;;;;;;;8.12;100.00;102858.16;5045818;28;20064;-73
2021/12/20 02:11:48;;;;;;;17.60;3.90;;;;;;;8.12;100.00;102860.03;5046892;28;20461;-72
2021/12/20 02:14:15;;;;;;;24.27;4.20;;;;;;;8.23;100.00;102857.47;5042102;28;20390;-73
2021/12/20 02:16:43;;;;;;;19.30;3.53;;;;;;;8.16;100.00;102850.34;5026246;28;20445;-74
2021/12/20 02:19:14;;;;;;;16.55;2.83;;;;;;;8.15;100.00;102844.06;5043244;28;20037;-74
2021/12/20 02:21:44;;;;;;;21.45;3.38;;;;;;;8.22;100.00;102844.84;5043278;28;20037;-73
2021/12/20 02:24:10;;;;;;;21.02;3.33;;;;;;;8.22;100.00;102850.31;5043743;28;20487;-75
2021/12/20 02:26:37;;;;;;;19.00;4.00;;;;;;;8.21;100.00;102847.81;5037776;28;20028;-72
2021/12/20 02:29:07;;;;;;;19.48;3.30;;;;;;;8.01;100.00;102848.72;5038650;28;20170;-74
2021/12/20 02:37:18;;;;;;;20.08;3.42;;;;;;;8.09;100.00;102836.72;5061150;28;20035;-74
2021/12/20 02:39:43;;;;;;;18.25;3.65;;;;;;;8.17;100.00;102841.94;5063131;28;20043;-74
2021/12/20 02:42:13;;;;;;;20.70;3.45;;;;;;;8.17;100.00;102846.56;5041650;28;20025;-72
2021/12/20 02:44:52;;;;;;;19.58;3.25;;;;;;;8.14;100.00;102833.34;5044341;28;20078;-74
2021/12/20 02:47:28;;;;;;;22.92;3.55;;;;;;;8.14;100.00;102836.06;5040195;28;20035;-73
2021/12/20 02:49:56;;;;;;;19.95;3.40;;;;;;;8.13;100.00;102840.69;5042740;28;20363;-73
2021/12/20 02:52:22;;;;;;;16.08;3.17;;;;;;;8.22;100.00;102844.03;5040625;28;20403;-73
2021/12/20 02:54:47;;;;;;;21.95;4.32;;;;;;;8.03;100.00;102830.22;5044846;28;20025;-73
2021/12/20 02:57:13;;;;;;;19.63;3.58;;;;;;;7.81;100.00;102835.13;5040169;28;20043;-74
2021/12/20 02:59:38;;;;;;;20.75;3.28;;;;;;;8.01;100.00;102826.88;5041566;28;20025;-73
2021/12/20 03:02:06;;;;;;;18.05;3.60;;;;;;;7.71;100.00;102832.03;5039333;28;20032;-73
2021/12/20 03:04:32;;;;;;;19.48;4.10;;;;;;;7.73;100.00;102830.75;5048779;28;20028;-74
2021/12/20 03:07:02;;;;;;;19.75;4.10;;;;;;;7.65;100.00;102832.88;5044123;28;20043;-73
2021/12/20 03:09:33;;;;;;;16.60;3.15;;;;;;;7.57;100.00;102831.19;5049724;28;20021;-73
2021/12/20 03:12:01;;;;;;;20.15;3.28;;;;;;;7.81;100.00;102834.31;5043041;28;20491;-74
2021/12/20 03:14:36;;;;;;;23.58;3.72;;;;;;;7.63;100.00;102835.81;5037535;28;20033;-73
2021/12/20 03:17:03;;;;;;;18.88;4.00;;;;;;;7.90;100.00;102833.00;5049540;28;20475;-73
2021/12/20 03:19:29;;;;;;;16.88;3.22;;;;;;;7.80;100.00;102824.44;5054527;28;20102;-74
2021/12/20 03:21:58;;;;;;;15.43;3.75;;;;;;;7.71;100.00;102827.38;5046181;28;20028;-74
2021/12/20 03:24:24;;;;;;;22.38;3.65;;;;;;;7.90;100.00;102819.34;5031574;28;20439;-73
2021/12/20 03:26:49;;;;;;;20.90;3.40;;;;;;;7.95;100.00;102827.72;5048435;28;20578;-74
2021/12/20 03:29:15;;;;;;;19.45;4.38;;;;;;;8.02;100.00;102831.28;5051696;28;20055;-74
2021/12/20 03:31:41;;;;;;;23.08;4.03;;;;;;;7.86;100.00;102829.03;5055396;28;20036;-74
2021/12/20 03:34:07;;;;;;;20.33;3.28;;;;;;;8.03;100.00;102829.38;5062021;28;20195;-73
2021/12/20 03:36:33;;;;;;;14.60;3.05;;;;;;;8.12;100.00;102827.22;5042121;28;20097;-74
2021/12/20 03:39:00;;;;;;;15.23;3.10;;;;;;;8.12;100.00;102833.56;5047829;28;20104;-74
2021/12/20 03:41:26;;;;;;;17.10;3.75;;;;;;;8.08;100.00;102830.44;5062502;28;20463;-74
2021/12/20 03:43:51;;;;;;;15.65;3.70;;;;;;;8.10;100.00;102831.03;5057154;28;20081;-74
2021/12/20 03:46:17;;;;;;;21.40;3.42;;;;;;;8.12;100.00;102830.81;5039761;28;20096;-74
2021/12/20 03:48:42;;;;;;;25.27;3.58;;;;;;;8.02;100.00;102833.19;5060598;28;20048;-73
2021/12/20 03:51:08;;;;;;;17.92;2.97;;;;;;;7.89;100.00;102828.59;5050141;28;20494;-74
2021/12/20 03:53:34;;;;;;;20.50;3.47;;;;;;;8.00;100.00;102824.34;5051651;28;20461;-73
2021/12/20 03:56:09;;;;;;;19.00;3.22;;;;;;;8.01;100.00;102831.50;5052470;28;20324;-73
2021/12/20 03:58:36;;;;;;;18.70;3.10;;;;;;;7.83;100.00;102818.53;5047668;28;20021;-73
2021/12/20 04:01:07;;;;;;;21.08;2.85;;;;;;;7.97;100.00;102830.25;5045283;28;20024;-74
2021/12/20 04:03:35;;;;;;;16.33;3.15;;;;;;;8.10;100.00;102820.13;5056413;28;20025;-74
2021/12/20 04:06:09;;;;;;;22.15;4.00;;;;;;;7.89;100.00;102829.44;5058788;28;20123;-74
2021/12/20 04:08:35;;;;;;;15.32;3.33;;;;;;;7.81;100.00;102826.13;5057123;28;20131;-75
2021/12/20 04:11:01;;;;;;;19.80;2.90;;;;;;;7.77;100.00;102830.31;5062479;28;20108;-73
2021/12/20 04:13:27;;;;;;;20.50;3.85;;;;;;;7.85;100.00;102825.44;5045897;28;20210;-74
2021/12/20 04:15:53;;;;;;;18.73;3.25;;;;;;;7.89;100.00;102826.72;5047527;28;20119;-75
2021/12/20 04:18:19;;;;;;;16.88;3.50;;;;;;;7.98;100.00;102827.28;5051384;28;20261;-74
2021/12/20 04:20:45;;;;;;;15.80;2.97;;;;;;;7.96;100.00;102823.94;5063718;28;20083;-74
2021/12/20 04:23:11;;;;;;;16.52;3.45;;;;;;;7.96;100.00;102823.13;5059253;28;20036;-74
2021/12/20 04:25:36;;;;;;;22.88;4.40;;;;;;;7.92;100.00;102822.72;5044215;28;20116;-74
2021/12/20 04:28:11;;;;;;;21.00;3.75;;;;;;;7.96;100.00;102820.38;5044519;28;20149;-74
2021/12/20 04:30:37;;;;;;;15.50;3.05;;;;;;;8.03;100.00;102832.94;5061401;28;20024;-74
2021/12/20 04:33:03;;;;;;;17.17;3.25;;;;;;;7.77;100.00;102822.13;5048415;28;20494;-73
2021/12/20 04:35:28;;;;;;;20.52;3.45;;;;;;;7.84;100.00;102817.50;5048349;28;20268;-74
2021/12/20 04:37:57;;;;;;;15.95;3.50;;;;;;;7.87;100.00;102817.91;5057216;28;20037;-75
2021/12/20 04:40:26;;;;;;;17.30;3.80;;;;;;;7.74;100.00;102826.13;5054384;28;20115;-75
2021/12/20 04:42:55;;;;;;;15.07;3.47;;;;;;;7.83;100.00;102830.28;5042683;28;20056;-74
2021/12/20 04:45:22;;;;;;;15.77;2.92;;;;;;;7.72;100.00;102825.50;5057594;28;20128;-74
2021/12/20 04:47:47;;;;;;;21.50;3.17;;;;;;;7.51;100.00;102821.97;5050951;28;20522;-74
2021/12/20 04:50:13;;;;;;;19.40;3.45;;;;;;;7.66;100.00;102829.94;5046344;28;20032;-73
2021/12/20 04:52:41;;;;;;;17.27;3.30;;;;;;;7.77;100.00;102833.03;5022944;28;20036;-74
2021/12/20 04:55:08;;;;;;;16.92;2.92;;;;;;;7.81;100.00;102837.03;5050282;28;20060;-74
2021/12/20 04:57:34;;;;;;;16.23;3.22;;;;;;;7.79;100.00;102831.78;5043911;28;20578;-73
2021/12/20 04:59:59;;;;;;;16.25;2.97;;;;;;;7.93;100.00;102826.28;5035906;28;20119;-75
2021/12/20 05:02:25;;;;;;;20.27;2.92;;;;;;;7.98;100.00;102830.03;5058002;28;20099;-75
2021/12/20 05:04:51;;;;;;;19.77;4.05;;;;;;;7.89;100.00;102834.91;5044189;28;20108;-75
2021/12/20 05:07:17;;;;;;;12.95;2.92;;;;;;;7.87;100.00;102815.16;5043934;28;20027;-74
2021/12/20 05:09:42;;;;;;;26.63;4.75;;;;;;;7.84;100.00;102826.53;5065025;28;20021;-74
2021/12/20 05:12:14;;;;;;;22.02;4.28;;;;;;;7.64;100.00;102826.59;5046538;28;20029;-74
2021/12/20 05:14:44;;;;;;;14.23;2.93;;;;;;;7.75;100.00;102825.06;5042365;28;20033;-74
2021/12/20 05:17:12;;;;;;;16.40;3.22;;;;;;;7.75;100.00;102832.44;5060875;28;20279;-75
2021/12/20 05:19:40;;;;;;;20.58;3.47;;;;;;;7.36;100.00;102829.53;5045454;28;20037;-74
2021/12/20 05:22:05;;;;;;;17.58;3.38;;;;;;;7.49;100.00;102828.69;5045139;28;20493;-73
2021/12/20 05:24:31;;;;;;;13.55;3.03;;;;;;;7.72;100.00;102825.50;5042355;28;20041;-74
2021/12/20 05:26:57;;;;;;;17.13;3.97;;;;;;;7.37;100.00;102831.25;5044400;28;20385;-75
2021/12/20 05:29:24;;;;;;;13.32;3.40;;;;;;;7.59;100.00;102831.84;5041216;28;20048;-74
2021/12/20 05:31:50;;;;;;;12.88;3.05;;;;;;;7.80;100.00;102836.19;5044503;28;20112;-75
2021/12/20 05:34:16;;;;;;;23.17;3.25;;;;;;;7.62;100.00;102827.84;5044877;28;20229;-74
2021/12/20 05:36:41;;;;;;;22.10;3.28;;;;;;;7.87;100.00;102830.69;5065558;28;20041;-74
2021/12/20 05:39:07;;;;;;;11.95;2.80;;;;;;;7.97;100.00;102832.97;5063100;28;20024;-74
2021/12/20 05:41:32;;;;;;;18.35;3.28;;;;;;;8.00;100.00;102838.88;5043525;28;20278;-74
2021/12/20 05:44:00;;;;;;;17.45;3.00;;;;;;;7.90;100.00;102835.72;5032159;28;20032;-74
2021/12/20 05:46:25;;;;;;;16.85;3.35;;;;;;;7.74;100.00;102837.06;5044784;28;20094;-73
2021/12/20 05:48:51;;;;;;;19.58;3.13;;;;;;;7.86;100.00;102835.31;5057763;28;20024;-73
2021/12/20 05:51:16;;;;;;;15.05;3.05;;;;;;;7.77;100.00;102835.78;5061249;28;20028;-75
2021/12/20 05:53:42;;;;;;;17.67;2.90;;;;;;;7.75;100.00;102832.44;5027514;28;20028;-74
2021/12/20 05:56:08;;;;;;;15.45;3.03;;;;;;;7.56;100.00;102832.28;5045514;28;20087;-75
2021/12/20 05:58:33;;;;;;;15.23;3.03;;;;;;;7.38;100.00;102837.53;5039612;28;20039;-75
2021/12/20 06:00:59;;;;;;;16.02;3.63;;;;;;;7.85;100.00;102835.53;5057426;28;20048;-74
2021/12/20 06:03:24;;;;;;;16.95;3.03;;;;;;;8.04;100.00;102837.38;5058129;28;20025;-74
2021/12/20 06:05:50;;;;;;;17.40;2.80;;;;;;;8.09;100.00;102840.28;5063300;28;20055;-75
2021/12/20 06:08:16;;;;;;;17.02;3.42;;;;;;;8.04;100.00;102834.63;5046264;28;20081;-74
2021/12/20 06:10:42;;;;;;;13.38;3.28;;;;;;;7.97;100.00;102833.84;5046363;28;20036;-75
2021/12/20 06:13:07;;;;;;;13.93;2.90;;;;;;;7.86;100.00;102834.50;5059948;28;20420;-73
2021/12/20 06:15:33;;;;;;;15.07;2.88;;;;;;;7.98;100.00;102848.31;5036867;28;20040;-74
2021/12/20 06:17:59;;;;;;;18.27;3.53;;;;;;;8.03;100.00;102852.06;5041946;28;20092;-74
2021/12/20 06:20:25;;;;;;;17.33;3.17;;;;;;;8.02;100.00;102855.88;5040747;28;20052;-73
2021/12/20 06:22:51;;;;;;;10.75;2.65;;;;;;;8.06;100.00;102857.09;5043504;28;20024;-74
2021/12/20 06:25:20;;;;;;;12.82;2.85;;;;;;;8.08;100.00;102854.16;5058983;28;20024;-72
2021/12/20 06:27:49;;;;;;;15.38;3.42;;;;;;;8.06;100.00;102851.63;5061954;28;20028;-74
2021/12/20 06:30:16;;;;;;;22.58;2.97;;;;;;;8.05;100.00;102849.13;5055567;28;20028;-73
2021/12/20 06:32:44;;;;;;;16.05;3.08;;;;;;;8.05;100.00;102844.50;5045205;28;20028;-73
2021/12/20 06:35:10;;;;;;;17.50;3.33;;;;;;;8.02;100.00;102844.94;5047147;28;20029;-73
2021/12/20 06:37:36;;;;;;;15.40;3.00;;;;;;;8.07;100.00;102847.88;5039325;28;20444;-74
2021/12/20 06:40:03;;;;;;;11.00;3.03;;;;;;;8.15;100.00;102848.66;5039315;28;20108;-74
2021/12/20 06:42:29;;;;;;;14.80;3.85;;;;;;;8.12;100.00;102849.94;5040438;28;20272;-73
2021/12/20 06:44:55;;;;;;;12.52;3.55;;;;;;;7.60;100.00;102849.06;5035457;28;20025;-74
2021/12/20 06:47:21;;;;;;;15.50;3.00;;;;;;;7.62;100.00;102849.69;5047772;28;20033;-74
2021/12/20 06:49:47;;;;;;;16.63;3.22;;;;;;;7.92;100.00;102852.75;5042040;28;20036;-74
2021/12/20 06:52:13;;;;;;;15.80;3.15;;;;;;;8.02;100.00;102850.41;5044282;28;20052;-73
2021/12/20 06:54:38;;;;;;;17.23;4.05;;;;;;;8.10;100.00;102849.34;5026459;28;20139;-72
2021/12/20 06:57:04;;;;;;;14.93;3.88;;;;;;;8.16;100.00;102862.09;5044721;28;20059;-75
2021/12/20 06:59:29;;;;;;;17.52;3.60;;;;;;;8.13;100.00;102861.72;5053538;28;20110;-73
2021/12/20 07:01:55;;;;;;;18.65;3.35;;;;;;;8.05;100.00;102849.97;5045236;28;20115;-74
2021/12/20 07:04:22;;;;;;;18.48;3.42;;;;;;;7.91;100.00;102853.81;5058403;28;21209;-74
2021/12/20 07:06:48;;;;;;;20.08;3.45;;;;;;;7.89;100.00;102855.91;5057003;28;20024;-73
2021/12/20 07:09:14;;;;;;;11.32;2.97;;;;;;;8.01;100.00;102862.38;5060269;28;20369;-73
2021/12/20 07:11:44;;;;;;;17.92;3.13;;;;;;;8.07;100.00;102863.44;5060763;28;20029;-73
2021/12/20 07:14:11;;;;;;;15.93;3.05;;;;;;;8.09;100.00;102864.88;5056375;28;20386;-74
2021/12/20 07:16:37;;;;;;;15.38;3.70;;;;;;;8.03;100.00;102854.78;5060822;28;20098;-73
2021/12/20 07:19:05;;;;;;;12.93;3.65;;;;;;;7.99;100.00;102860.94;5042757;28;20456;-72
2021/12/20 07:21:30;;;;;;;18.50;4.22;;;;;;;7.91;100.00;102848.34;5062756;28;20021;-73
2021/12/20 07:23:56;;;;;;;13.05;2.78;;;;;;;7.87;100.00;102849.81;5057455;28;20110;-73
2021/12/20 07:26:23;;;;;;;19.77;3.50;;;;;;;7.77;100.00;102857.63;5041950;28;20440;-72
2021/12/20 07:28:49;;;;;;;15.30;3.35;;;;;;;7.78;100.00;102862.88;5039322;28;20029;-73
2021/12/20 07:31:15;;;;;;;17.05;3.10;;;;;;;7.85;100.00;102851.94;5043530;28;20105;-74
2021/12/20 07:33:41;;;;;;;14.30;2.70;;;;;;;7.89;100.00;102856.75;5041514;28;20366;-73
2021/12/20 07:36:07;;;;;;;12.00;2.50;;;;;;;7.85;100.00;102851.94;5041343;28;20464;-73
2021/12/20 07:38:34;;;;;;;13.30;3.40;;;;;;;7.80;100.00;102851.72;5044493;28;20074;-74
2021/12/20 07:41:00;;;;;;;14.52;3.53;;;;;;;7.89;100.00;102856.75;5042818;28;20025;-74
2021/12/20 07:43:27;;;;;;;14.98;3.78;;;;;;;7.69;100.00;102861.41;5038151;28;20321;-73
2021/12/20 07:45:53;;;;;;;9.23;2.53;;;;;;;7.73;100.00;102865.41;5040799;28;20024;-75
2021/12/20 07:48:20;;;;;;;14.88;2.55;;;;;;;7.23;100.00;102860.44;5040667;28;20305;-73
2021/12/20 07:50:47;;;;;;;11.55;2.47;;;;;;;7.29;100.00;102862.31;5039652;28;20343;-73
2021/12/20 07:53:13;;;;;;;9.98;2.60;;;;;;;7.54;100.00;102867.09;5043563;28;20557;-72
2021/12/20 07:55:39;;;;;;;15.18;2.60;;;;;;;7.54;100.00;102876.16;5041212;28;20036;-74
2021/12/20 07:58:07;;;;;;;12.07;2.42;;;;;;;7.59;100.00;102875.53;5059802;28;20071;-74
2021/12/20 08:00:33;;;;;;;17.13;3.03;;;;;;;7.42;100.00;102869.63;5055445;28;20091;-74
2021/12/20 08:03:00;;;;;;;14.95;2.60;;;;;;;7.49;100.00;102872.38;5062453;28;20047;-72
2021/12/20 08:05:28;;;;;;;10.18;2.38;;;;;;;7.18;100.00;102877.44;5060202;28;20444;-73
2021/12/20 08:07:54;;;;;;;11.95;2.22;;;;;;;7.41;100.00;102880.78;5061341;28;20020;-74
2021/12/20 08:10:31;;;;;;;10.25;2.20;;;;;;;7.31;100.00;102876.59;5061388;28;20478;-74
2021/12/20 08:12:56;;;;;;;9.55;1.90;;;;;;;7.09;100.00;102884.13;5052829;28;20108;-73
2021/12/20 08:15:22;;;;;;;9.68;2.33;;;;;;;7.43;100.00;102884.13;5044084;28;20037;-74
2021/12/20 08:17:51;;;;;;;16.83;2.13;;;;;;;7.30;100.00;102883.09;5054878;28;20758;-73
2021/12/20 08:20:18;;;;;;;9.88;2.47;;;;;;;7.32;100.00;102889.16;5042433;28;20143;-72
2021/12/20 08:22:44;;;;;;;10.23;2.05;;;;;;;7.31;100.00;102886.66;5054008;28;20039;-73
2021/12/20 08:25:10;;;;;;;11.23;2.40;;;;;;;7.49;100.00;102880.56;5058037;28;20035;-75
2021/12/20 08:27:35;;;;;;;10.43;2.10;;;;;;;7.40;100.00;102884.56;5064404;28;20048;-75
2021/12/20 08:30:01;;;;;;;9.05;2.50;;;;;;;7.48;100.00;102889.81;5060745;28;20127;-74
2021/12/20 08:32:28;;;;;;;11.13;2.50;;;;;;;7.58;100.00;102892.94;5066250;28;20051;-73
2021/12/20 08:34:54;;;;;;;9.85;2.58;;;;;;;7.63;100.00;102887.69;5045884;28;20033;-74
2021/12/20 08:37:20;;;;;;;12.27;2.13;;;;;;;7.52;100.00;102891.06;5046091;28;20052;-73
2021/12/20 08:39:46;;;;;;;11.57;2.30;;;;;;;7.38;100.00;102886.66;5045502;28;20528;-73
2021/12/20 08:42:11;;;;;;;13.88;2.58;;;;;;;7.43;100.00;102889.56;5030662;28;20036;-73
2021/12/20 08:44:37;;;;;;;11.10;2.13;;;;;;;7.52;100.00;102883.69;5044131;28;20025;-73
2021/12/20 08:47:02;;;;;;;9.48;2.40;;;;;;;7.40;100.00;102890.03;5061155;28;20032;-74
2021/12/20 08:49:29;;;;;;;8.20;1.73;;;;;;;7.47;100.00;102886.22;5049890;28;20072;-73
2021/12/20 08:51:56;;;;;;;9.10;2.22;;;;;;;7.62;100.00;102883.25;5050102;28;20036;-73
2021/12/20 08:54:24;;;;;;;10.25;1.98;;;;;;;7.72;100.00;102891.88;5059755;28;20062;-74
2021/12/20 08:56:51;;;;;;;10.52;1.73;;;;;;;7.78;100.00;102890.19;5069594;28;20332;-73
2021/12/20 08:59:16;;;;;;;13.00;2.30;;;;;;;7.74;100.00;102888.94;5045767;28;20028;-72
2021/12/20 09:01:42;;;;;;;9.98;2.20;;;;;;;7.74;100.00;102897.13;5065569;28;20120;-71
2021/12/20 09:04:09;;;;;;;10.88;2.67;;;;;;;7.76;100.00;102896.91;5059952;28;20111;-73
2021/12/20 09:06:39;;;;;;;9.27;2.30;;;;;;;7.73;100.00;102904.47;5045085;28;20032;-74
2021/12/20 09:09:06;;;;;;;10.02;2.50;;;;;;;7.81;100.00;102903.41;5046688;28;20025;-73
2021/12/20 09:11:32;;;;;;;13.63;2.70;;;;;;;7.77;100.00;102901.31;5031684;28;20037;-72
2021/12/20 09:13:58;;;;;;;9.45;2.03;;;;;;;7.75;100.00;102911.59;5008658;28;20043;-73
2021/12/20 09:16:24;;;;;;;10.57;2.50;;;;;;;7.69;100.00;102905.94;5054631;28;20469;-72
2021/12/20 09:18:50;;;;;;;11.48;2.47;;;;;;;7.96;100.00;102907.78;5049190;28;20087;-74
2021/12/20 09:21:16;;;;;;;8.52;2.70;;;;;;;8.00;100.00;102906.28;5045648;28;20040;-73
2021/12/20 09:23:43;;;;;;;10.80;2.70;;;;;;;8.08;100.00;102911.53;5047137;28;20037;-73
2021/12/20 09:26:09;;;;;;;11.18;2.63;;;;;;;7.93;100.00;102910.94;5028135;28;20345;-72
2021/12/20 09:28:35;;;;;;;10.73;2.38;;;;;;;7.87;100.00;102909.91;5043035;28;20502;-73
2021/12/20 09:31:03;;;;;;;14.25;3.50;;;;;;;7.68;100.00;102908.91;5040652;28;20464;-72
2021/12/20 09:33:28;;;;;;;11.02;2.47;;;;;;;8.17;100.00;102906.69;5044149;28;20047;-73
2021/12/20 09:35:54;;;;;;;15.13;2.78;;;;;;;8.15;100.00;102914.22;5044902;28;20028;-71
2021/12/20 09:38:21;;;;;;;13.38;2.65;;;;;;;8.41;100.00;102907.84;5064763;28;20024;-71
2021/12/20 09:43:45;;;;;;;14.10;2.88;;;;;;;8.13;100.00;102917.19;5059284;28;20040;-72
2021/12/20 09:46:11;;;;;;;;;;;;;;;8.33;100.00;102917.13;5061684;28;20043;-72
2021/12/20 09:48:37;;;;;;;7.80;2.25;;;;;;;8.01;100.00;102916.19;5064899;28;20008;-73
2021/12/20 09:51:04;;;;;;;10.00;2.55;;;;;;;8.17;100.00;102917.63;5045788;28;20036;-72
2021/12/20 09:53:30;;;;;;;12.00;2.80;;;;;;;8.00;100.00;102918.09;5064735;28;20036;-73
2021/12/20 09:55:58;;;;;;;9.20;3.00;;;;;;;7.94;100.00;102929.03;5050852;28;20029;-73
2021/12/20 09:58:25;;;;;;;11.73;2.90;;;;;;;8.35;100.00;102925.13;5041898;28;20087;-72
2021/12/20 10:00:52;;;;;;;15.07;2.95;;;;;;;8.55;100.00;102922.31;5039253;28;20028;-73
2021/12/20 10:03:24;;;;;;;9.30;2.58;;;;;;;8.46;100.00;102917.09;5049162;28;20024;-74
2021/12/20 10:05:54;;;;;;;11.68;2.30;;;;;;;8.57;100.00;102926.50;5062903;28;20044;-73
2021/12/20 10:08:30;;;;;;;8.40;2.20;;;;;;;8.35;100.00;102928.69;5061835;28;20592;-75
2021/12/20 10:10:56;;;;;;;9.32;1.75;;;;;;;8.23;100.00;102923.06;5061792;28;20506;-73
2021/12/20 10:13:22;;;;;;;9.20;2.10;;;;;;;8.48;100.00;102932.44;5058050;28;20465;-73
2021/12/20 10:15:48;;;;;;;9.38;2.15;;;;;;;8.61;100.00;102927.75;5046283;28;20016;-73
2021/12/20 10:18:14;;;;;;;9.10;1.98;;;;;;;8.39;100.00;102924.44;5064853;28;20235;-73
2021/12/20 10:20:48;;;;;;;8.45;1.95;;;;;;;8.23;100.00;102934.00;5061359;28;20151;-74
2021/12/20 10:23:19;;;;;;;9.70;1.60;;;;;;;8.50;100.00;102928.44;5060948;28;20028;-73
2021/12/20 10:25:52;;;;;;;7.75;1.88;;;;;;;8.71;100.00;102930.03;5059444;28;20446;-73
2021/12/20 10:28:24;;;;;;;9.38;2.92;;;;;;;8.87;100.00;102920.47;5060162;28;20028;-74
2021/12/20 10:31:03;;;;;;;8.50;2.00;;;;;;;8.25;100.00;102926.41;5049204;28;20044;-73
2021/12/20 10:33:28;;;;;;;12.45;2.25;;;;;;;8.18;100.00;102933.81;5043159;28;20016;-73
2021/12/20 10:35:56;;;;;;;9.35;2.05;;;;;;;8.60;100.00;102926.06;5039011;28;20486;-73
2021/12/20 10:38:31;;;;;;;5.95;1.52;;;;;;;7.65;100.00;102921.06;5042912;28;20040;-74
2021/12/20 10:41:01;;;;;;;7.88;1.55;;;;;;;8.20;100.00;102923.47;5039213;28;20021;-73
2021/12/20 10:43:37;;;;;;;5.63;1.42;;;;;;;8.35;100.00;102925.13;5043408;28;20033;-73
2021/12/20 10:46:33;;;;;;;5.93;1.50;;;;;;;8.16;100.00;102932.31;5040023;28;20525;-73
2021/12/20 10:49:14;;;;;;;8.85;2.13;;;;;;;8.31;100.00;102934.78;5033917;28;20041;-71
2021/12/20 10:51:48;;;;;;;6.55;2.13;;;;;;;8.47;100.00;102934.34;5053067;28;20121;-74
2021/12/20 10:54:17;;;;;;;6.93;1.75;;;;;;;8.45;100.00;102933.72;5059818;28;20055;-73
2021/12/20 10:57:05;;;;;;;5.57;1.92;;;;;;;8.52;100.00;102930.97;5056629;28;20118;-72
2021/12/20 10:59:35;;;;;;;7.85;1.80;;;;;;;8.71;100.00;102929.19;5055045;28;20029;-73
2021/12/20 11:03:13;;;;;;;9.48;2.10;;;;;;;8.93;100.00;102924.22;5060155;28;20024;-73
2021/12/20 11:04:56;;;;;;;10.45;2.35;;;;;;;8.14;100.00;102927.06;5058671;28;20037;-72
2021/12/20 11:10:06;;;;;;;8.32;2.08;;;;;;;8.33;100.00;102922.59;5040910;28;20029;-73
2021/12/20 11:12:33;;;;;;;6.13;2.22;;;;;;;8.49;100.00;102918.56;5064169;28;20017;-73
2021/12/20 11:15:04;;;;;;;8.98;1.98;;;;;;;8.45;100.00;102920.06;5054022;28;20024;-72
2021/12/20 11:17:30;;;;;;;8.18;2.10;;;;;;;8.52;100.00;102914.56;5062609;28;20036;-75
2021/12/20 11:19:57;;;;;;;8.70;2.15;;;;;;;8.57;100.00;102912.00;5061457;28;20119;-75
2021/12/20 11:22:25;;;;;;;9.95;2.28;;;;;;;8.50;100.00;102922.16;5062289;28;20506;-74
2021/12/20 11:24:54;;;;;;;9.38;2.20;;;;;;;8.48;100.00;102913.31;5059704;28;20036;-74
2021/12/20 11:27:24;;;;;;;12.63;2.28;;;;;;;8.39;100.00;102913.50;5063471;28;20061;-75
2021/12/20 11:29:52;;;;;;;11.63;2.95;;;;;;;8.62;100.00;102910.31;5054618;28;20044;-72
2021/12/20 11:32:19;;;;;;;9.07;2.28;;;;;;;8.36;100.00;102907.66;5062157;28;20395;-72
2021/12/20 11:34:46;;;;;;;6.43;2.30;;;;;;;8.66;100.00;102910.72;5042614;28;20036;-73
2021/12/20 11:37:15;;;;;;;8.98;2.20;;;;;;;9.17;100.00;102909.75;5046243;28;20032;-73